Time,TemperatureF,DewpointF,PressureIn,WindDirection,WindDirectionDegrees,WindSpeedMPH,WindSpeedGustMPH,Humidity,HourlyPrecipIn,Conditions,Clouds,dailyrainin,SoftwareType,DateUTC
2013-06-22 00:00:00,73.8,71.6,30.05,ENE,68,0.0,2.0,93,0.00,,,0.00,Wunderground v.1.15,2013-06-22 05:00:00,
2013-06-22 00:06:00,73.8,71.6,30.05,ENE,67,0.0,0.0,93,0.00,,,0.00,Wunderground v.1.15,2013-06-22 05:06:00,
2013-06-22 00:12:00,73.8,71.6,30.04,ENE,67,0.0,0.0,93,0.00,,,0.00,Wunderground v.1.15,2013-06-22 05:12:00,
2013-06-22 00:17:00,73.8,71.6,30.04,ENE,68,0.0,0.0,93,0.00,,,0.00,Wunderground v.1.15,2013-06-22 05:17:00,
2013-06-22 00:22:00,73.7,71.5,30.04,ENE,68,0.0,0.0,93,0.00,,,0.00,Wunderground v.1.15,2013-06-22 05:22:00,
2013-06-22 00:29:00,73.6,71.4,30.04,ENE,67,0.0,0.0,93,0.00,,,0.00,Wunderground v.1.15,2013-06-22 05:29:00,
2013-06-22 00:34:00,73.6,71.8,30.04,ENE,67,0.0,0.0,94,0.00,,,0.00,Wunderground v.1.15,2013-06-22 05:34:00,
2013-06-22 00:39:00,73.6,71.8,30.05,ENE,67,0.0,0.0,94,0.00,,,0.00,Wunderground v.1.15,2013-06-22 05:39:00,
2013-06-22 00:45:00,73.5,71.7,30.04,ENE,65,0.0,0.0,94,0.00,,,0.00,Wunderground v.1.15,2013-06-22 05:45:00,
2013-06-22 00:50:00,73.5,71.7,30.05,ENE,65,0.0,0.0,94,0.00,,,0.00,Wunderground v.1.15,2013-06-22 05:50:00,
2013-06-22 00:55:00,73.5,71.7,30.04,ENE,65,0.0,0.0,94,0.00,,,0.00,Wunderground v.1.15,2013-06-22 05:55:00,
2013-06-22 01:00:00,73.3,71.5,30.04,ENE,65,0.0,0.0,94,0.00,,,0.00,Wunderground v.1.15,2013-06-22 06:00:00,
2013-06-22 01:06:00,73.0,71.2,30.04,ENE,65,0.0,0.0,94,0.00,,,0.00,Wunderground v.1.15,2013-06-22 06:06:00,
2013-06-22 01:11:00,73.0,71.2,30.03,ENE,65,0.0,0.0,94,0.00,,,0.00,Wunderground v.1.15,2013-06-22 06:11:00,
2013-06-22 01:16:00,73.0,71.5,30.03,ENE,65,0.0,0.0,95,0.00,,,0.00,Wunderground v.1.15,2013-06-22 06:16:00,
2013-06-22 01:21:00,73.0,71.5,30.03,ENE,65,0.0,0.0,95,0.00,,,0.00,Wunderground v.1.15,2013-06-22 06:21:00,
2013-06-22 01:26:00,72.9,71.4,30.03,ENE,65,0.0,0.0,95,0.00,,,0.00,Wunderground v.1.15,2013-06-22 06:26:00,
2013-06-22 01:32:00,72.7,71.2,30.03,ENE,65,0.0,0.0,95,0.00,,,0.00,Wunderground v.1.15,2013-06-22 06:32:00,
2013-06-22 01:37:00,72.8,71.3,30.03,ENE,65,0.0,0.0,95,0.00,,,0.00,Wunderground v.1.15,2013-06-22 06:37:00,
2013-06-22 01:42:00,72.7,71.2,30.03,ENE,65,0.0,0.0,95,0.00,,,0.00,Wunderground v.1.15,2013-06-22 06:42:00,
2013-06-22 01:47:00,72.7,71.2,30.03,ENE,65,0.0,0.0,95,0.00,,,0.00,Wunderground v.1.15,2013-06-22 06:47:00,
2013-06-22 01:53:00,72.7,71.2,30.03,ENE,65,0.0,0.0,95,0.00,,,0.00,Wunderground v.1.15,2013-06-22 06:53:00,
2013-06-22 01:58:00,72.7,71.2,30.03,ENE,65,0.0,0.0,95,0.00,,,0.00,Wunderground v.1.15,2013-06-22 06:58:00,
2013-06-22 02:04:00,72.8,71.6,30.03,ENE,63,0.0,0.0,96,0.00,,,0.00,Wunderground v.1.15,2013-06-22 07:04:00,
2013-06-22 02:09:00,72.8,71.3,30.03,ENE,63,0.0,0.0,95,0.00,,,0.00,Wunderground v.1.15,2013-06-22 07:09:00,
2013-06-22 02:14:00,72.7,71.2,30.03,ENE,63,0.0,0.0,95,0.00,,,0.00,Wunderground v.1.15,2013-06-22 07:14:00,
2013-06-22 02:19:00,72.6,71.1,30.03,ENE,63,0.0,0.0,95,0.00,,,0.00,Wunderground v.1.15,2013-06-22 07:19:00,
2013-06-22 02:25:00,72.5,71.0,30.03,ENE,63,0.0,0.0,95,0.00,,,0.00,Wunderground v.1.15,2013-06-22 07:25:00,
2013-06-22 02:30:00,72.3,70.8,30.03,ENE,63,0.0,0.0,95,0.00,,,0.00,Wunderground v.1.15,2013-06-22 07:30:00,
2013-06-22 02:35:00,72.3,71.1,30.03,ENE,63,0.0,0.0,96,0.00,,,0.00,Wunderground v.1.15,2013-06-22 07:35:00,
2013-06-22 02:40:00,72.1,70.6,30.03,ENE,62,0.0,0.0,95,0.00,,,0.00,Wunderground v.1.15,2013-06-22 07:40:00,
2013-06-22 02:45:00,72.0,70.8,30.03,ENE,63,0.0,0.0,96,0.00,,,0.00,Wunderground v.1.15,2013-06-22 07:45:00,
2013-06-22 02:51:00,72.1,70.9,30.03,ENE,63,0.0,0.0,96,0.00,,,0.00,Wunderground v.1.15,2013-06-22 07:51:00,
2013-06-22 02:56:00,72.2,71.0,30.03,SE,139,0.0,0.0,96,0.00,,,0.00,Wunderground v.1.15,2013-06-22 07:56:00,
2013-06-22 03:01:00,72.4,71.2,30.03,SE,142,0.0,0.0,96,0.00,,,0.00,Wunderground v.1.15,2013-06-22 08:01:00,
2013-06-22 03:07:00,72.4,71.2,30.02,SE,142,0.0,0.0,96,0.00,,,0.00,Wunderground v.1.15,2013-06-22 08:07:00,
2013-06-22 03:13:00,72.2,71.0,30.03,SE,143,0.0,0.0,96,0.00,,,0.00,Wunderground v.1.15,2013-06-22 08:13:00,
2013-06-22 03:18:00,72.0,70.8,30.02,SE,143,0.0,0.0,96,0.00,,,0.00,Wunderground v.1.15,2013-06-22 08:18:00,
2013-06-22 03:24:00,72.1,70.9,30.03,SE,143,0.0,0.0,96,0.00,,,0.00,Wunderground v.1.15,2013-06-22 08:24:00,
2013-06-22 03:29:00,72.2,71.0,30.03,SE,143,0.0,0.0,96,0.00,,,0.00,Wunderground v.1.15,2013-06-22 08:29:00,
2013-06-22 03:34:00,72.2,71.0,30.03,SSE,147,0.0,0.0,96,0.00,,,0.00,Wunderground v.1.15,2013-06-22 08:34:00,
2013-06-22 03:39:00,72.1,70.9,30.03,SSE,147,0.0,0.0,96,0.00,,,0.00,Wunderground v.1.15,2013-06-22 08:39:00,
2013-06-22 03:45:00,72.0,70.8,30.03,SE,146,0.0,0.0,96,0.00,,,0.00,Wunderground v.1.15,2013-06-22 08:45:00,
2013-06-22 03:50:00,72.0,70.8,30.03,SE,146,0.0,0.0,96,0.00,,,0.00,Wunderground v.1.15,2013-06-22 08:50:00,
2013-06-22 03:55:00,71.8,70.6,30.03,SSE,147,0.0,0.0,96,0.00,,,0.00,Wunderground v.1.15,2013-06-22 08:55:00,
2013-06-22 04:00:00,71.7,70.5,30.03,SSE,147,0.0,0.0,96,0.00,,,0.00,Wunderground v.1.15,2013-06-22 09:00:00,
2013-06-22 04:06:00,71.5,70.3,30.03,SSE,147,0.0,0.0,96,0.00,,,0.00,Wunderground v.1.15,2013-06-22 09:06:00,
2013-06-22 04:11:00,71.5,70.3,30.03,SE,146,0.0,0.0,96,0.00,,,0.00,Wunderground v.1.15,2013-06-22 09:11:00,
2013-06-22 04:16:00,71.4,70.2,30.03,SE,139,0.0,0.0,96,0.00,,,0.00,Wunderground v.1.15,2013-06-22 09:16:00,
2013-06-22 04:21:00,71.3,70.1,30.03,ESE,113,0.0,2.0,96,0.00,,,0.00,Wunderground v.1.15,2013-06-22 09:21:00,
2013-06-22 04:26:00,71.2,70.0,30.03,ESE,115,0.0,1.0,96,0.00,,,0.00,Wunderground v.1.15,2013-06-22 09:26:00,
2013-06-22 04:32:00,71.2,70.0,30.03,ESE,115,0.0,1.0,96,0.00,,,0.00,Wunderground v.1.15,2013-06-22 09:32:00,
2013-06-22 04:37:00,71.2,70.0,30.03,ESE,115,0.0,0.0,96,0.00,,,0.00,Wunderground v.1.15,2013-06-22 09:37:00,
2013-06-22 04:42:00,71.1,69.9,30.03,ESE,115,0.0,0.0,96,0.00,,,0.00,Wunderground v.1.15,2013-06-22 09:42:00,
2013-06-22 04:49:00,71.2,70.0,30.04,ESE,115,0.0,1.0,96,0.00,,,0.00,Wunderground v.1.15,2013-06-22 09:49:00,
2013-06-22 04:54:00,71.1,69.9,30.04,ESE,116,0.0,1.0,96,0.00,,,0.00,Wunderground v.1.15,2013-06-22 09:54:00,
2013-06-22 04:59:00,71.1,69.9,30.04,ESE,116,0.0,0.0,96,0.00,,,0.00,Wunderground v.1.15,2013-06-22 09:59:00,
2013-06-22 05:05:00,71.2,70.0,30.04,ESE,115,0.0,0.0,96,0.00,,,0.00,Wunderground v.1.15,2013-06-22 10:05:00,
2013-06-22 05:10:00,71.0,69.8,30.04,ESE,116,0.0,0.0,96,0.00,,,0.00,Wunderground v.1.15,2013-06-22 10:10:00,
2013-06-22 05:15:00,71.0,69.8,30.04,ESE,115,0.0,0.0,96,0.00,,,0.00,Wunderground v.1.15,2013-06-22 10:15:00,
2013-06-22 05:20:00,70.9,69.7,30.04,ESE,116,0.0,0.0,96,0.00,,,0.00,Wunderground v.1.15,2013-06-22 10:20:00,
2013-06-22 05:26:00,70.9,69.7,30.05,ESE,115,0.0,0.0,96,0.00,,,0.00,Wunderground v.1.15,2013-06-22 10:26:00,
2013-06-22 05:31:00,70.9,69.7,30.05,ESE,116,0.0,0.0,96,0.00,,,0.00,Wunderground v.1.15,2013-06-22 10:31:00,
2013-06-22 05:36:00,70.8,69.6,30.05,ESE,115,0.0,0.0,96,0.00,,,0.00,Wunderground v.1.15,2013-06-22 10:36:00,
2013-06-22 05:41:00,70.8,69.6,30.05,ESE,115,0.0,0.0,96,0.00,,,0.00,Wunderground v.1.15,2013-06-22 10:41:00,
2013-06-22 05:47:00,70.7,69.5,30.05,ESE,115,0.0,0.0,96,0.00,,,0.00,Wunderground v.1.15,2013-06-22 10:47:00,
2013-06-22 05:52:00,70.7,69.5,30.05,ESE,117,0.0,0.0,96,0.00,,,0.00,Wunderground v.1.15,2013-06-22 10:52:00,
2013-06-22 05:57:00,70.7,69.8,30.05,ESE,117,0.0,0.0,97,0.00,,,0.00,Wunderground v.1.15,2013-06-22 10:57:00,
2013-06-22 06:03:00,70.7,69.8,30.05,ESE,117,0.0,0.0,97,0.00,,,0.00,Wunderground v.1.15,2013-06-22 11:03:00,
2013-06-22 06:09:00,70.7,69.8,30.05,ESE,113,0.0,0.0,97,0.00,,,0.00,Wunderground v.1.15,2013-06-22 11:09:00,
2013-06-22 06:14:00,70.7,69.8,30.05,ESE,113,0.0,0.0,97,0.00,,,0.00,Wunderground v.1.15,2013-06-22 11:14:00,
2013-06-22 06:19:00,70.7,69.8,30.05,ESE,113,0.0,0.0,97,0.00,,,0.00,Wunderground v.1.15,2013-06-22 11:19:00,
2013-06-22 06:24:00,70.7,69.8,30.05,ESE,113,0.0,0.0,97,0.00,,,0.00,Wunderground v.1.15,2013-06-22 11:24:00,
2013-06-22 06:30:00,70.7,69.5,30.05,ESE,113,0.0,0.0,96,0.00,,,0.00,Wunderground v.1.15,2013-06-22 11:30:00,
2013-06-22 06:36:00,71.0,70.1,30.05,ESE,113,0.0,0.0,97,0.00,,,0.00,Wunderground v.1.15,2013-06-22 11:36:00,
2013-06-22 06:41:00,71.3,70.4,30.05,ESE,113,0.0,0.0,97,0.00,,,0.00,Wunderground v.1.15,2013-06-22 11:41:00,
2013-06-22 06:46:00,71.6,70.4,30.05,ESE,113,0.0,0.0,96,0.00,,,0.00,Wunderground v.1.15,2013-06-22 11:46:00,
2013-06-22 06:52:00,72.0,70.8,30.06,ESE,113,0.0,0.0,96,0.00,,,0.00,Wunderground v.1.15,2013-06-22 11:52:00,
2013-06-22 06:58:00,72.5,71.3,30.06,ESE,113,0.0,0.0,96,0.00,,,0.00,Wunderground v.1.15,2013-06-22 11:58:00,
2013-06-22 07:03:00,73.5,72.6,30.06,ESE,113,0.0,0.0,97,0.00,,,0.00,Wunderground v.1.15,2013-06-22 12:03:00,
2013-06-22 07:09:00,73.5,72.3,30.06,ESE,113,0.0,0.0,96,0.00,,,0.00,Wunderground v.1.15,2013-06-22 12:09:00,
2013-06-22 07:14:00,74.0,72.8,30.06,SE,136,0.0,0.0,96,0.00,,,0.00,Wunderground v.1.15,2013-06-22 12:14:00,
2013-06-22 07:19:00,74.3,73.1,30.06,SE,136,0.0,0.0,96,0.00,,,0.00,Wunderground v.1.15,2013-06-22 12:19:00,
2013-06-22 07:24:00,75.0,73.5,30.06,SSE,147,0.0,1.0,95,0.00,,,0.00,Wunderground v.1.15,2013-06-22 12:24:00,
2013-06-22 07:30:00,75.2,73.4,30.06,SE,132,1.0,1.0,94,0.00,,,0.00,Wunderground v.1.15,2013-06-22 12:30:00,
2013-06-22 07:35:00,75.6,73.4,30.06,SSE,157,1.0,1.0,93,0.00,,,0.00,Wunderground v.1.15,2013-06-22 12:35:00,
2013-06-22 07:40:00,75.7,73.2,30.06,SE,146,1.0,2.0,92,0.00,,,0.00,Wunderground v.1.15,2013-06-22 12:40:00,
2013-06-22 07:45:00,76.2,73.4,30.06,ESE,108,1.0,1.0,91,0.00,,,0.00,Wunderground v.1.15,2013-06-22 12:45:00,
2013-06-22 07:51:00,76.4,73.6,30.07,SSE,148,1.0,2.0,91,0.00,,,0.00,Wunderground v.1.15,2013-06-22 12:51:00,
2013-06-22 07:56:00,76.7,73.5,30.07,SE,145,2.0,2.0,90,0.00,,,0.00,Wunderground v.1.15,2013-06-22 12:56:00,
2013-06-22 08:01:00,77.2,74.0,30.07,ESE,113,1.0,2.0,90,0.00,,,0.00,Wunderground v.1.15,2013-06-22 13:01:00,
2013-06-22 08:06:00,77.4,73.6,30.07,ESE,113,1.0,2.0,88,0.00,,,0.00,Wunderground v.1.15,2013-06-22 13:06:00,
2013-06-22 08:11:00,77.6,73.4,30.07,ESE,113,2.0,2.0,87,0.00,,,0.00,Wunderground v.1.15,2013-06-22 13:11:00,
2013-06-22 08:17:00,77.9,74.1,30.07,ESE,117,2.0,3.0,88,0.00,,,0.00,Wunderground v.1.15,2013-06-22 13:17:00,
2013-06-22 08:22:00,78.2,74.4,30.07,SSE,149,2.0,3.0,88,0.00,,,0.00,Wunderground v.1.15,2013-06-22 13:22:00,
2013-06-22 08:27:00,79.0,74.8,30.07,SE,142,2.0,3.0,87,0.00,,,0.00,Wunderground v.1.15,2013-06-22 13:27:00,
2013-06-22 08:34:00,79.2,74.6,30.07,ESE,122,2.0,4.0,86,0.00,,,0.00,Wunderground v.1.15,2013-06-22 13:34:00,
2013-06-22 08:39:00,79.5,74.9,30.08,SSE,151,3.0,4.0,86,0.00,,,0.00,Wunderground v.1.15,2013-06-22 13:39:00,
2013-06-22 08:44:00,80.0,75.4,30.08,SE,144,2.0,4.0,86,0.00,,,0.00,Wunderground v.1.15,2013-06-22 13:44:00,
2013-06-22 08:50:00,81.1,75.8,30.08,ESE,120,1.0,2.0,84,0.00,,,0.00,Wunderground v.1.15,2013-06-22 13:50:00,
2013-06-22 08:55:00,81.5,75.1,30.08,SW,225,1.0,1.0,81,0.00,,,0.00,Wunderground v.1.15,2013-06-22 13:55:00,
2013-06-22 09:01:00,82.2,75.4,30.09,SSE,153,1.0,2.0,80,0.00,,,0.00,Wunderground v.1.15,2013-06-22 14:01:00,
2013-06-22 09:06:00,82.5,76.1,30.08,SE,131,1.0,2.0,81,0.00,,,0.00,Wunderground v.1.15,2013-06-22 14:06:00,
2013-06-22 09:11:00,82.6,76.2,30.08,SSW,198,1.0,3.0,81,0.00,,,0.00,Wunderground v.1.15,2013-06-22 14:11:00,
2013-06-22 09:16:00,82.9,75.7,30.09,SE,141,2.0,2.0,79,0.00,,,0.00,Wunderground v.1.15,2013-06-22 14:16:00,
2013-06-22 09:22:00,83.5,75.9,30.09,ESE,107,2.0,2.0,78,0.00,,,0.00,Wunderground v.1.15,2013-06-22 14:22:00,
2013-06-22 09:27:00,84.1,76.1,30.09,WSW,240,1.0,2.0,77,0.00,,,0.00,Wunderground v.1.15,2013-06-22 14:27:00,
2013-06-22 09:32:00,84.7,75.9,30.09,SSW,203,1.0,2.0,75,0.00,,,0.00,Wunderground v.1.15,2013-06-22 14:32:00,
2013-06-22 09:38:00,84.0,75.6,30.09,ESE,108,2.0,5.0,76,0.00,,,0.00,Wunderground v.1.15,2013-06-22 14:38:00,
2013-06-22 09:43:00,84.2,76.2,30.09,SE,139,2.0,5.0,77,0.00,,,0.00,Wunderground v.1.15,2013-06-22 14:43:00,
2013-06-22 09:48:00,84.5,76.5,30.09,SW,235,2.0,2.0,77,0.00,,,0.00,Wunderground v.1.15,2013-06-22 14:48:00,
2013-06-22 09:54:00,84.9,76.1,30.09,SW,221,2.0,2.0,75,0.00,,,0.00,Wunderground v.1.15,2013-06-22 14:54:00,
2013-06-22 09:59:00,85.1,76.7,30.09,South,173,2.0,5.0,76,0.00,,,0.00,Wunderground v.1.15,2013-06-22 14:59:00,
2013-06-22 10:04:00,85.6,76.8,30.08,ESE,114,1.0,5.0,75,0.00,,,0.00,Wunderground v.1.15,2013-06-22 15:04:00,
2013-06-22 10:09:00,85.8,76.5,30.08,ENE,66,1.0,2.0,74,0.00,,,0.00,Wunderground v.1.15,2013-06-22 15:09:00,
2013-06-22 10:15:00,85.7,76.5,30.09,SW,224,2.0,2.0,74,0.00,,,0.00,Wunderground v.1.15,2013-06-22 15:15:00,
2013-06-22 10:21:00,86.3,76.6,30.08,SW,222,1.0,4.0,73,0.00,,,0.00,Wunderground v.1.15,2013-06-22 15:21:00,
2013-06-22 10:26:00,86.9,77.2,30.09,SSE,160,1.0,1.0,73,0.00,,,0.00,Wunderground v.1.15,2013-06-22 15:26:00,
2013-06-22 10:31:00,87.5,77.4,30.09,SE,134,1.0,2.0,72,0.00,,,0.00,Wunderground v.1.15,2013-06-22 15:31:00,
2013-06-22 10:36:00,86.8,76.7,30.09,ESE,117,2.0,3.0,72,0.00,,,0.00,Wunderground v.1.15,2013-06-22 15:36:00,
2013-06-22 10:42:00,86.0,76.3,30.09,SE,131,3.0,5.0,73,0.00,,,0.00,Wunderground v.1.15,2013-06-22 15:42:00,
2013-06-22 10:47:00,86.0,76.3,30.09,SE,139,2.0,4.0,73,0.00,,,0.00,Wunderground v.1.15,2013-06-22 15:47:00,
2013-06-22 10:52:00,86.0,77.1,30.09,ENE,58,2.0,4.0,75,0.00,,,0.00,Wunderground v.1.15,2013-06-22 15:52:00,
2013-06-22 10:57:00,86.4,77.5,30.09,SSE,160,2.0,3.0,75,0.00,,,0.00,Wunderground v.1.15,2013-06-22 15:57:00,
2013-06-22 11:04:00,87.4,77.3,30.09,SSE,152,2.0,4.0,72,0.00,,,0.00,Wunderground v.1.15,2013-06-22 16:04:00,
2013-06-22 11:09:00,87.7,76.3,30.09,SW,219,2.0,3.0,69,0.00,,,0.00,Wunderground v.1.15,2013-06-22 16:09:00,
2013-06-22 11:15:00,88.2,76.7,30.09,ESE,105,1.0,3.0,69,0.00,,,0.00,Wunderground v.1.15,2013-06-22 16:15:00,
2013-06-22 11:20:00,87.9,76.5,30.09,SSW,211,2.0,4.0,69,0.00,,,0.00,Wunderground v.1.15,2013-06-22 16:20:00,
2013-06-22 11:25:00,88.2,78.0,30.09,ESE,107,2.0,4.0,72,0.00,,,0.00,Wunderground v.1.15,2013-06-22 16:25:00,
2013-06-22 11:30:00,88.7,77.7,30.09,SW,222,2.0,4.0,70,0.00,,,0.00,Wunderground v.1.15,2013-06-22 16:30:00,
2013-06-22 11:35:00,89.2,77.3,30.09,ENE,78,2.0,2.0,68,0.00,,,0.00,Wunderground v.1.15,2013-06-22 16:35:00,
2013-06-22 11:41:00,89.0,77.1,30.09,SW,217,2.0,2.0,68,0.00,,,0.00,Wunderground v.1.15,2013-06-22 16:41:00,
2013-06-22 11:46:00,88.8,76.9,30.09,ESE,117,2.0,5.0,68,0.00,,,0.00,Wunderground v.1.15,2013-06-22 16:46:00,
2013-06-22 11:51:00,88.7,76.8,30.09,NE,53,3.0,5.0,68,0.00,,,0.00,Wunderground v.1.15,2013-06-22 16:51:00,
2013-06-22 11:56:00,89.6,77.6,30.09,NE,49,2.0,2.0,68,0.00,,,0.00,Wunderground v.1.15,2013-06-22 16:56:00,
2013-06-22 12:02:00,88.8,77.3,30.09,SE,135,3.0,6.0,69,0.00,,,0.00,Wunderground v.1.15,2013-06-22 17:02:00,
2013-06-22 12:07:00,89.0,77.1,30.09,ESE,105,3.0,4.0,68,0.00,,,0.00,Wunderground v.1.15,2013-06-22 17:07:00,
2013-06-22 12:13:00,90.0,77.1,30.09,SE,124,2.0,4.0,66,0.00,,,0.00,Wunderground v.1.15,2013-06-22 17:13:00,
2013-06-22 12:18:00,90.2,77.3,30.09,SE,134,2.0,5.0,66,0.00,,,0.00,Wunderground v.1.15,2013-06-22 17:18:00,
2013-06-22 12:23:00,89.4,76.1,30.09,ESE,113,3.0,5.0,65,0.00,,,0.00,Wunderground v.1.15,2013-06-22 17:23:00,
2013-06-22 12:29:00,89.7,76.4,30.08,SSE,159,2.0,4.0,65,0.00,,,0.00,Wunderground v.1.15,2013-06-22 17:29:00,
2013-06-22 12:34:00,90.3,74.5,30.08,East,94,2.0,4.0,60,0.00,,,0.00,Wunderground v.1.15,2013-06-22 17:34:00,
2013-06-22 12:39:00,89.8,75.0,30.08,ESE,108,2.0,4.0,62,0.00,,,0.00,Wunderground v.1.15,2013-06-22 17:39:00,
2013-06-22 12:45:00,89.4,73.7,30.08,East,94,3.0,4.0,60,0.00,,,0.00,Wunderground v.1.15,2013-06-22 17:45:00,
2013-06-22 12:50:00,89.8,76.5,30.08,East,97,3.0,4.0,65,0.00,,,0.00,Wunderground v.1.15,2013-06-22 17:50:00,
2013-06-22 12:55:00,90.1,75.8,30.08,East,82,3.0,3.0,63,0.00,,,0.00,Wunderground v.1.15,2013-06-22 17:55:00,
2013-06-22 13:01:00,90.4,77.0,30.08,SE,138,2.0,4.0,65,0.00,,,0.00,Wunderground v.1.15,2013-06-22 18:01:00,
2013-06-22 13:06:00,90.1,75.8,30.08,SSW,208,3.0,4.0,63,0.00,,,0.00,Wunderground v.1.15,2013-06-22 18:06:00,
2013-06-22 13:11:00,91.2,76.8,30.08,SE,132,2.0,4.0,63,0.00,,,0.00,Wunderground v.1.15,2013-06-22 18:11:00,
2013-06-22 13:16:00,91.5,77.1,30.07,SSE,150,2.0,4.0,63,0.00,,,0.00,Wunderground v.1.15,2013-06-22 18:16:00,
2013-06-22 13:22:00,91.8,76.4,30.07,SE,143,2.0,4.0,61,0.00,,,0.00,Wunderground v.1.15,2013-06-22 18:22:00,
2013-06-22 13:27:00,90.7,76.8,30.07,ESE,108,3.0,4.0,64,0.00,,,0.00,Wunderground v.1.15,2013-06-22 18:27:00,
2013-06-22 13:32:00,90.1,75.8,30.07,SE,143,4.0,5.0,63,0.00,,,0.00,Wunderground v.1.15,2013-06-22 18:32:00,
2013-06-22 13:37:00,90.3,76.5,30.07,SSE,148,4.0,5.0,64,0.00,,,0.00,Wunderground v.1.15,2013-06-22 18:37:00,
2013-06-22 13:42:00,90.3,76.5,30.06,SSE,162,4.0,5.0,64,0.00,,,0.00,Wunderground v.1.15,2013-06-22 18:42:00,
2013-06-22 13:48:00,90.8,76.0,30.06,WSW,248,3.0,4.0,62,0.00,,,0.00,Wunderground v.1.15,2013-06-22 18:48:00,
2013-06-22 13:53:00,91.0,75.7,30.06,SE,143,2.0,6.0,61,0.00,,,0.00,Wunderground v.1.15,2013-06-22 18:53:00,
2013-06-22 13:59:00,91.5,76.6,30.06,SE,134,3.0,6.0,62,0.00,,,0.00,Wunderground v.1.15,2013-06-22 18:59:00,
2013-06-22 14:04:00,91.0,75.7,30.06,SW,231,3.0,6.0,61,0.00,,,0.00,Wunderground v.1.15,2013-06-22 19:04:00,
2013-06-22 14:09:00,90.1,76.7,30.05,SE,137,3.0,5.0,65,0.00,,,0.00,Wunderground v.1.15,2013-06-22 19:09:00,
2013-06-22 14:15:00,89.7,75.4,30.05,ESE,105,3.0,8.0,63,0.00,,,0.00,Wunderground v.1.15,2013-06-22 19:15:00,
2013-06-22 14:20:00,89.8,75.0,30.05,East,89,4.0,8.0,62,0.00,,,0.00,Wunderground v.1.15,2013-06-22 19:20:00,
2013-06-22 14:25:00,90.4,76.6,30.05,SSW,192,3.0,3.0,64,0.00,,,0.00,Wunderground v.1.15,2013-06-22 19:25:00,
2013-06-22 14:30:00,91.0,76.2,30.04,SE,129,3.0,6.0,62,0.00,,,0.00,Wunderground v.1.15,2013-06-22 19:30:00,
2013-06-22 14:36:00,90.4,75.6,30.04,SSW,207,4.0,4.0,62,0.00,,,0.00,Wunderground v.1.15,2013-06-22 19:36:00,
2013-06-22 14:41:00,90.9,75.1,30.04,SSE,156,3.0,6.0,60,0.00,,,0.00,Wunderground v.1.15,2013-06-22 19:41:00,
2013-06-22 14:46:00,91.2,75.9,30.03,ESE,108,2.0,4.0,61,0.00,,,0.00,Wunderground v.1.15,2013-06-22 19:46:00,
2013-06-22 14:52:00,92.2,76.8,30.03,SE,136,2.0,4.0,61,0.00,,,0.00,Wunderground v.1.15,2013-06-22 19:52:00,
2013-06-22 14:57:00,92.6,76.2,30.03,ESE,106,2.0,4.0,59,0.00,,,0.00,Wunderground v.1.15,2013-06-22 19:57:00,
2013-06-22 15:02:00,92.1,75.2,30.03,SE,133,3.0,7.0,58,0.00,,,0.00,Wunderground v.1.15,2013-06-22 20:02:00,
2013-06-22 15:07:00,92.4,76.0,30.03,SE,127,3.0,5.0,59,0.00,,,0.00,Wunderground v.1.15,2013-06-22 20:07:00,
2013-06-22 15:13:00,91.5,75.1,30.03,SSE,158,3.0,6.0,59,0.00,,,0.00,Wunderground v.1.15,2013-06-22 20:13:00,
2013-06-22 15:18:00,91.3,75.5,30.03,ESE,117,4.0,5.0,60,0.00,,,0.00,Wunderground v.1.15,2013-06-22 20:18:00,
2013-06-22 15:24:00,90.6,74.8,30.03,ESE,102,3.0,5.0,60,0.00,,,0.00,Wunderground v.1.15,2013-06-22 20:24:00,
2013-06-22 15:29:00,91.0,75.2,30.02,SE,144,3.0,4.0,60,0.00,,,0.00,Wunderground v.1.15,2013-06-22 20:29:00,
2013-06-22 15:34:00,91.2,74.9,30.02,ESE,103,3.0,6.0,59,0.00,,,0.00,Wunderground v.1.15,2013-06-22 20:34:00,
2013-06-22 15:39:00,91.3,76.0,30.02,SSE,151,4.0,4.0,61,0.00,,,0.00,Wunderground v.1.15,2013-06-22 20:39:00,
2013-06-22 15:44:00,91.5,75.1,30.02,SE,129,3.0,6.0,59,0.00,,,0.00,Wunderground v.1.15,2013-06-22 20:44:00,
2013-06-22 15:50:00,90.9,75.6,30.02,SE,139,5.0,6.0,61,0.00,,,0.00,Wunderground v.1.15,2013-06-22 20:50:00,
2013-06-22 15:55:00,90.8,75.5,30.02,ESE,122,5.0,5.0,61,0.00,,,0.00,Wunderground v.1.15,2013-06-22 20:55:00,
2013-06-22 16:00:00,91.3,75.0,30.01,ESE,120,3.0,5.0,59,0.00,,,0.00,Wunderground v.1.15,2013-06-22 21:00:00,
2013-06-22 16:06:00,91.2,75.9,30.01,SSE,159,3.0,4.0,61,0.00,,,0.00,Wunderground v.1.15,2013-06-22 21:06:00,
2013-06-22 16:11:00,91.2,74.4,30.01,SSE,156,3.0,4.0,58,0.00,,,0.00,Wunderground v.1.15,2013-06-22 21:11:00,
2013-06-22 16:16:00,91.2,73.8,30.01,SE,139,3.0,4.0,57,0.00,,,0.00,Wunderground v.1.15,2013-06-22 21:16:00,
2013-06-22 16:21:00,91.0,74.7,30.00,East,96,3.0,5.0,59,0.00,,,0.00,Wunderground v.1.15,2013-06-22 21:21:00,
2013-06-22 16:26:00,90.8,74.0,30.00,ESE,104,4.0,4.0,58,0.00,,,0.00,Wunderground v.1.15,2013-06-22 21:26:00,
2013-06-22 16:32:00,90.6,75.3,30.00,SE,132,4.0,6.0,61,0.00,,,0.00,Wunderground v.1.15,2013-06-22 21:32:00,
2013-06-22 16:37:00,90.5,74.7,30.00,SE,127,4.0,5.0,60,0.00,,,0.00,Wunderground v.1.15,2013-06-22 21:37:00,
2013-06-22 16:42:00,90.4,74.1,30.00,SSE,166,3.0,5.0,59,0.00,,,0.00,Wunderground v.1.15,2013-06-22 21:42:00,
2013-06-22 16:48:00,90.7,75.9,30.00,ESE,117,3.0,6.0,62,0.00,,,0.00,Wunderground v.1.15,2013-06-22 21:48:00,
2013-06-22 16:54:00,90.4,74.6,30.00,SE,140,4.0,7.0,60,0.00,,,0.00,Wunderground v.1.15,2013-06-22 21:54:00,
2013-06-22 16:59:00,90.2,73.9,30.00,SE,132,4.0,6.0,59,0.00,,,0.00,Wunderground v.1.15,2013-06-22 21:59:00,
2013-06-22 17:04:00,90.1,74.3,29.99,East,100,4.0,6.0,60,0.00,,,0.00,Wunderground v.1.15,2013-06-22 22:04:00,
2013-06-22 17:10:00,90.1,75.3,29.99,SSW,194,3.0,4.0,62,0.00,,,0.00,Wunderground v.1.15,2013-06-22 22:10:00,
2013-06-22 17:16:00,90.2,75.9,29.99,SSE,161,3.0,4.0,63,0.00,,,0.00,Wunderground v.1.15,2013-06-22 22:16:00,
2013-06-22 17:21:00,90.0,75.2,29.99,ESE,103,3.0,6.0,62,0.00,,,0.00,Wunderground v.1.15,2013-06-22 22:21:00,
2013-06-22 17:26:00,89.8,75.0,29.99,ESE,115,4.0,4.0,62,0.00,,,0.00,Wunderground v.1.15,2013-06-22 22:26:00,
2013-06-22 17:32:00,89.7,74.9,29.98,ESE,104,4.0,5.0,62,0.00,,,0.00,Wunderground v.1.15,2013-06-22 22:32:00,
2013-06-22 17:38:00,89.7,75.9,29.98,SE,127,3.0,4.0,64,0.00,,,0.00,Wunderground v.1.15,2013-06-22 22:38:00,
2013-06-22 17:43:00,89.8,75.5,29.98,SE,141,3.0,4.0,63,0.00,,,0.00,Wunderground v.1.15,2013-06-22 22:43:00,
2013-06-22 17:49:00,89.6,75.3,29.98,ESE,104,3.0,5.0,63,0.00,,,0.00,Wunderground v.1.15,2013-06-22 22:49:00,
2013-06-22 17:54:00,89.4,75.6,29.98,SE,127,4.0,5.0,64,0.00,,,0.00,Wunderground v.1.15,2013-06-22 22:54:00,
2013-06-22 17:59:00,89.2,75.0,29.98,SSE,155,3.0,4.0,63,0.00,,,0.00,Wunderground v.1.15,2013-06-22 22:59:00,
2013-06-22 18:04:00,89.0,75.2,29.98,ESE,117,3.0,4.0,64,0.00,,,0.00,Wunderground v.1.15,2013-06-22 23:04:00,
2013-06-22 18:10:00,88.7,75.4,29.97,SE,127,3.0,4.0,65,0.00,,,0.00,Wunderground v.1.15,2013-06-22 23:10:00,
2013-06-22 18:15:00,88.6,76.2,29.97,ESE,123,3.0,3.0,67,0.00,,,0.00,Wunderground v.1.15,2013-06-22 23:15:00,
2013-06-22 18:20:00,88.5,75.2,29.97,SE,132,3.0,5.0,65,0.00,,,0.00,Wunderground v.1.15,2013-06-22 23:20:00,
2013-06-22 18:25:00,88.3,75.0,29.97,ESE,115,3.0,4.0,65,0.00,,,0.00,Wunderground v.1.15,2013-06-22 23:25:00,
2013-06-22 18:31:00,88.3,75.5,29.97,SE,127,2.0,4.0,66,0.00,,,0.00,Wunderground v.1.15,2013-06-22 23:31:00,
2013-06-22 18:36:00,88.1,75.8,29.97,SE,134,2.0,4.0,67,0.00,,,0.00,Wunderground v.1.15,2013-06-22 23:36:00,
2013-06-22 18:41:00,87.9,76.0,29.97,ESE,117,2.0,4.0,68,0.00,,,0.00,Wunderground v.1.15,2013-06-22 23:41:00,
2013-06-22 18:46:00,87.7,75.4,29.97,ESE,110,2.0,5.0,67,0.00,,,0.00,Wunderground v.1.15,2013-06-22 23:46:00,
2013-06-22 18:52:00,87.6,75.7,29.97,ESE,120,3.0,7.0,68,0.00,,,0.00,Wunderground v.1.15,2013-06-22 23:52:00,
2013-06-22 18:57:00,87.4,76.0,29.97,ESE,115,3.0,4.0,69,0.00,,,0.00,Wunderground v.1.15,2013-06-22 23:57:00,
2013-06-22 19:02:00,87.4,76.4,29.97,ESE,117,1.0,4.0,70,0.00,,,0.00,Wunderground v.1.15,2013-06-23 00:02:00,
2013-06-22 19:07:00,87.2,76.2,29.97,ESE,120,1.0,4.0,70,0.00,,,0.00,Wunderground v.1.15,2013-06-23 00:07:00,
2013-06-22 19:14:00,87.0,76.0,29.97,ESE,114,1.0,4.0,70,0.00,,,0.00,Wunderground v.1.15,2013-06-23 00:14:00,
2013-06-22 19:19:00,86.9,76.4,29.97,SE,128,1.0,4.0,71,0.00,,,0.00,Wunderground v.1.15,2013-06-23 00:19:00,
2013-06-22 19:24:00,86.7,76.2,29.97,SE,134,1.0,4.0,71,0.00,,,0.00,Wunderground v.1.15,2013-06-23 00:24:00,
2013-06-22 19:30:00,86.5,76.0,29.96,ESE,117,1.0,4.0,71,0.00,,,0.00,Wunderground v.1.15,2013-06-23 00:30:00,
2013-06-22 19:35:00,86.4,76.7,29.97,SE,132,1.0,4.0,73,0.00,,,0.00,Wunderground v.1.15,2013-06-23 00:35:00,
2013-06-22 19:40:00,86.2,76.1,29.96,SE,127,1.0,4.0,72,0.00,,,0.00,Wunderground v.1.15,2013-06-23 00:40:00,
2013-06-22 19:45:00,86.1,76.0,29.96,ESE,119,1.0,4.0,72,0.00,,,0.00,Wunderground v.1.15,2013-06-23 00:45:00,
2013-06-22 19:51:00,86.1,76.4,29.97,ESE,117,1.0,4.0,73,0.00,,,0.00,Wunderground v.1.15,2013-06-23 00:51:00,
2013-06-22 19:56:00,85.9,76.2,29.96,SE,136,1.0,4.0,73,0.00,,,0.00,Wunderground v.1.15,2013-06-23 00:56:00,
2013-06-22 20:01:00,85.7,76.5,29.97,SE,136,0.0,4.0,74,0.00,,,0.00,Wunderground v.1.15,2013-06-23 01:01:00,
2013-06-22 20:06:00,85.5,76.3,29.97,SE,127,0.0,4.0,74,0.00,,,0.00,Wunderground v.1.15,2013-06-23 01:06:00,
2013-06-22 20:12:00,85.3,76.1,29.97,SE,127,0.0,4.0,74,0.00,,,0.00,Wunderground v.1.15,2013-06-23 01:12:00,
2013-06-22 20:17:00,85.1,76.3,29.97,SE,127,0.0,4.0,75,0.00,,,0.00,Wunderground v.1.15,2013-06-23 01:17:00,
2013-06-22 20:22:00,84.8,76.4,29.97,East,101,0.0,4.0,76,0.00,,,0.00,Wunderground v.1.15,2013-06-23 01:22:00,
2013-06-22 20:27:00,84.5,76.1,29.97,East,101,1.0,4.0,76,0.00,,,0.00,Wunderground v.1.15,2013-06-23 01:27:00,
2013-06-22 20:32:00,84.3,75.9,29.97,East,101,1.0,4.0,76,0.00,,,0.00,Wunderground v.1.15,2013-06-23 01:32:00,
2013-06-22 20:38:00,84.2,75.8,29.97,East,101,0.0,4.0,76,0.00,,,0.00,Wunderground v.1.15,2013-06-23 01:38:00,
2013-06-22 20:43:00,84.0,76.0,29.97,East,101,0.0,4.0,77,0.00,,,0.00,Wunderground v.1.15,2013-06-23 01:43:00,
2013-06-22 20:49:00,83.5,75.9,29.97,ESE,111,0.0,4.0,78,0.00,,,0.00,Wunderground v.1.15,2013-06-23 01:49:00,
2013-06-22 20:54:00,83.2,76.0,29.97,ESE,111,1.0,4.0,79,0.00,,,0.00,Wunderground v.1.15,2013-06-23 01:54:00,
2013-06-22 20:59:00,83.1,75.9,29.97,ESE,112,1.0,4.0,79,0.00,,,0.00,Wunderground v.1.15,2013-06-23 01:59:00,
2013-06-22 21:05:00,82.8,75.6,29.97,ESE,111,1.0,4.0,79,0.00,,,0.00,Wunderground v.1.15,2013-06-23 02:05:00,
2013-06-22 21:10:00,82.7,75.5,29.97,ESE,111,1.0,4.0,79,0.00,,,0.00,Wunderground v.1.15,2013-06-23 02:10:00,
2013-06-22 21:15:00,82.5,75.7,29.97,ESE,112,0.0,4.0,80,0.00,,,0.00,Wunderground v.1.15,2013-06-23 02:15:00,
2013-06-22 21:21:00,82.4,75.6,29.98,ESE,112,0.0,4.0,80,0.00,,,0.00,Wunderground v.1.15,2013-06-23 02:21:00,
2013-06-22 21:27:00,82.1,75.7,29.98,ESE,111,0.0,4.0,81,0.00,,,0.00,Wunderground v.1.15,2013-06-23 02:27:00,
2013-06-22 21:32:00,81.9,75.5,29.98,ESE,111,0.0,4.0,81,0.00,,,0.00,Wunderground v.1.15,2013-06-23 02:32:00,
2013-06-22 21:37:00,81.8,75.4,29.98,ESE,111,0.0,4.0,81,0.00,,,0.00,Wunderground v.1.15,2013-06-23 02:37:00,
2013-06-22 21:44:00,81.6,75.6,29.99,ESE,111,0.0,4.0,82,0.00,,,0.00,Wunderground v.1.15,2013-06-23 02:44:00,
2013-06-22 21:49:00,81.4,75.4,29.99,ESE,120,1.0,4.0,82,0.00,,,0.00,Wunderground v.1.15,2013-06-23 02:49:00,
2013-06-22 21:54:00,81.5,75.5,29.99,ESE,104,1.0,5.0,82,0.00,,,0.00,Wunderground v.1.15,2013-06-23 02:54:00,
2013-06-22 22:00:00,81.6,75.2,30.00,SE,141,2.0,4.0,81,0.00,,,0.00,Wunderground v.1.15,2013-06-23 03:00:00,
2013-06-22 22:05:00,81.6,75.6,30.00,SE,145,2.0,4.0,82,0.00,,,0.00,Wunderground v.1.15,2013-06-23 03:05:00,
2013-06-22 22:10:00,81.4,75.4,30.00,ESE,117,1.0,4.0,82,0.00,,,0.00,Wunderground v.1.15,2013-06-23 03:10:00,
2013-06-22 22:15:00,81.3,75.3,30.00,ESE,120,2.0,4.0,82,0.00,,,0.00,Wunderground v.1.15,2013-06-23 03:15:00,
2013-06-22 22:21:00,81.0,75.0,30.00,SSE,150,3.0,4.0,82,0.00,,,0.00,Wunderground v.1.15,2013-06-23 03:21:00,
2013-06-22 22:26:00,80.9,74.9,30.00,SE,124,2.0,4.0,82,0.00,,,0.00,Wunderground v.1.15,2013-06-23 03:26:00,
2013-06-22 22:31:00,80.7,75.1,30.00,SE,130,2.0,4.0,83,0.00,,,0.00,Wunderground v.1.15,2013-06-23 03:31:00,
2013-06-22 22:36:00,80.6,75.0,30.00,SE,132,2.0,4.0,83,0.00,,,0.00,Wunderground v.1.15,2013-06-23 03:36:00,
2013-06-22 22:42:00,80.5,74.9,30.00,SE,131,1.0,4.0,83,0.00,,,0.00,Wunderground v.1.15,2013-06-23 03:42:00,
2013-06-22 22:47:00,80.3,74.7,30.00,ESE,109,1.0,4.0,83,0.00,,,0.00,Wunderground v.1.15,2013-06-23 03:47:00,
2013-06-22 22:52:00,80.2,74.9,30.01,SE,145,1.0,4.0,84,0.00,,,0.00,Wunderground v.1.15,2013-06-23 03:52:00,
2013-06-22 22:59:00,80.0,74.7,30.00,ESE,121,1.0,4.0,84,0.00,,,0.00,Wunderground v.1.15,2013-06-23 03:59:00,
2013-06-22 23:01:00,79.9,74.6,30.01,ESE,120,1.0,4.0,84,0.00,,,0.00,Wunderground v.1.15,2013-06-23 04:01:00,
2013-06-22 23:02:00,79.9,74.6,30.01,ESE,110,1.0,4.0,84,0.00,,,0.00,Wunderground v.1.15,2013-06-23 04:02:00,
2013-06-22 23:04:00,79.8,74.5,30.01,ESE,107,1.0,4.0,84,0.00,,,0.00,Wunderground v.1.15,2013-06-23 04:04:00,
2013-06-22 23:09:00,79.6,74.7,30.00,ESE,107,1.0,4.0,85,0.00,,,0.00,Wunderground v.1.15,2013-06-23 04:09:00,
2013-06-22 23:10:00,79.6,74.7,30.01,ESE,107,1.0,4.0,85,0.00,,,0.00,Wunderground v.1.15,2013-06-23 04:10:00,
2013-06-22 23:15:00,79.4,74.5,30.01,SE,134,0.0,4.0,85,0.00,,,0.00,Wunderground v.1.15,2013-06-23 04:15:00,
2013-06-22 23:21:00,79.2,74.6,30.01,SE,146,0.0,4.0,86,0.00,,,0.00,Wunderground v.1.15,2013-06-23 04:21:00,
2013-06-22 23:24:00,79.2,74.6,30.01,SSE,148,0.0,4.0,86,0.00,,,0.00,Wunderground v.1.15,2013-06-23 04:24:00,
2013-06-22 23:29:00,79.0,74.5,30.01,SE,135,0.0,4.0,86,0.00,,,0.00,Wunderground v.1.15,2013-06-23 04:29:00,
2013-06-22 23:34:00,78.9,74.4,30.01,SE,132,1.0,4.0,86,0.00,,,0.00,Wunderground v.1.15,2013-06-23 04:34:00,
2013-06-22 23:39:00,78.8,74.3,30.01,SE,143,1.0,4.0,86,0.00,,,0.00,Wunderground v.1.15,2013-06-23 04:39:00,
2013-06-22 23:45:00,78.6,74.4,30.01,SE,127,1.0,1.0,87,0.00,,,0.00,Wunderground v.1.15,2013-06-23 04:45:00,
2013-06-22 23:50:00,78.5,74.3,30.01,ESE,111,1.0,4.0,87,0.00,,,0.00,Wunderground v.1.15,2013-06-23 04:50:00,
2013-06-22 23:55:00,78.3,74.1,30.02,ESE,122,2.0,2.0,87,0.00,,,0.00,Wunderground v.1.15,2013-06-23 04:55:00,